Billy Bishop Toronto City Centre Airport

CYTZ · Ontario, Kanada

4 października 2022

Czas Kod Pogoda Temp. Widoczność Sufit Wiatr METAR/SPECI
08:00
V
8 °C 9 mi - 310° 310° 10 kt METAR CYTZ 041200Z AUTO 31010KT 9SM CLR 08/05 A3023 RMK SLP241
07:00
V
8 °C 9 mi - 300° 300° 5 kt METAR CYTZ 041100Z AUTO 30005KT 9SM CLR 08/04 A3023 RMK SLP241
06:00
V
8 °C 9 mi - Var Var 2 kt METAR CYTZ 041000Z AUTO VRB02KT 9SM FEW230 08/05 A3023 RMK SLP240
05:00
V
7 °C 9 mi - 290° 290° 2 kt METAR CYTZ 040900Z AUTO 29002KT 9SM FEW250 07/05 A3023 RMK SLP240
04:00
V
8 °C 9 mi - 070° 070° 3 kt METAR CYTZ 040800Z AUTO 07003KT 030V110 9SM CLR 08/05 A3024 RMK SLP244
03:00
V
7 °C 9 mi - Var Var 2 kt METAR CYTZ 040700Z AUTO VRB02KT 9SM CLR 07/05 A3025 RMK SLP246
02:00
V
9 °C 9 mi - 290° 290° 4 kt METAR CYTZ 040600Z AUTO 29004KT 9SM CLR 09/04 A3025 RMK SLP247
01:00
V
10 °C 9 mi - 290° 290° 6 kt METAR CYTZ 040500Z AUTO 29006KT 9SM CLR 10/04 A3027 RMK SLP253
00:00
V
11 °C 9 mi - 330° 330° 4 kt METAR CYTZ 040400Z AUTO 33004KT 280V340 9SM CLR 11/04 A3028 RMK SLP256

3 października 2022

Czas Kod Pogoda Temp. Widoczność Sufit Wiatr METAR/SPECI
23:00
V
9 °C 9 mi - 300° 300° 4 kt METAR CYTZ 040300Z AUTO 30004KT 240V330 9SM CLR 09/05 A3029 RMK SLP260
22:00
V
8 °C 9 mi - Var 000° 0 kt METAR CYTZ 040200Z AUTO 00000KT 9SM CLR 08/06 A3030 RMK SLP263
21:00
V
9 °C 9 mi - Var 000° 0 kt METAR CYTZ 040100Z AUTO 00000KT 9SM CLR 09/05 A3030 RMK SLP264
20:00
V
9 °C 9 mi - 260° 260° 3 kt METAR CYTZ 040000Z AUTO 26003KT 240V330 9SM CLR 09/05 A3030 RMK SLP265
19:00
V
11 °C 9 mi - Var 000° 0 kt METAR CYTZ 032300Z AUTO 00000KT 9SM CLR 11/05 A3031 RMK SLP266
18:00
V
13 °C 9 mi - Var 000° 0 kt METAR CYTZ 032200Z AUTO 00000KT 9SM CLR 13/03 A3031 RMK SLP269
17:00
V
13 °C 9 mi - 160° 160° 4 kt METAR CYTZ 032100Z AUTO 16004KT 120V210 9SM CLR 13/02 A3032 RMK SLP272
16:00
V
13 °C 9 mi - 160° 160° 6 kt METAR CYTZ 032000Z AUTO 16006KT 9SM CLR 13/03 A3034 RMK SLP276
15:00
V
13 °C 9 mi - Var Var 4 kt METAR CYTZ 031900Z AUTO VRB04KT 9SM CLR 13/03 A3035 RMK SLP280
14:00
V
13 °C 9 mi - 080° 080° 9 kt METAR CYTZ 031800Z AUTO 08009KT 040V120 9SM CLR 13/02 A3038 RMK SLP291
13:00
V
13 °C 9 mi - 060° 060° 13 kt METAR CYTZ 031700Z AUTO 06013KT 9SM CLR 13/03 A3041 RMK SLP301
12:00
V
12 °C 9 mi - 060° 060° 14 - 19 kt METAR CYTZ 031600Z AUTO 06014G19KT 9SM CLR 12/02 A3042 RMK SLP305
11:00
V
12 °C 9 mi - 080° 080° 11 - 16 kt METAR CYTZ 031500Z AUTO 08011G16KT 9SM CLR 12/M00 A3042 RMK SLP303
10:00
V
11 °C 9 mi - 030° 030° 12 kt METAR CYTZ 031400Z AUTO 03012KT 9SM CLR 11/M01 A3040 RMK SLP299
09:00
V
11 °C 9 mi - 040° 040° 5 kt METAR CYTZ 031300Z AUTO 04005KT 350V060 9SM CLR 11/00 A3039 RMK SLP294
08:00
V
7 °C 9 mi - Var Var 2 kt METAR CYTZ 031200Z AUTO VRB02KT 9SM CLR 07/M00 A3038 RMK SLP292
07:00
V
8 °C 9 mi - Var Var 4 kt METAR CYTZ 031100Z AUTO VRB04KT 9SM CLR 08/M01 A3037 RMK SLP289
06:00
V
8 °C 9 mi - 050° 050° 7 - 15 kt METAR CYTZ 031000Z AUTO 05007G15KT 020V100 9SM CLR 08/01 A3037 RMK SLP286
05:00
V
8 °C 9 mi - 050° 050° 12 - 17 kt METAR CYTZ 030900Z AUTO 05012G17KT 9SM CLR 08/00 A3036 RMK SLP284
04:00
V
8 °C 9 mi - 050° 050° 12 kt METAR CYTZ 030800Z AUTO 05012KT 9SM CLR 08/00 A3036 RMK SLP283
03:00
V
9 °C 9 mi - 050° 050° 12 kt METAR CYTZ 030700Z AUTO 05012KT 9SM CLR 09/M00 A3036 RMK SLP285
02:00
V
10 °C 9 mi - 050° 050° 13 - 18 kt METAR CYTZ 030600Z AUTO 05013G18KT 9SM CLR 10/M01 A3037 RMK SLP288
01:00
V
10 °C 9 mi - 050° 050° 13 kt METAR CYTZ 030500Z AUTO 05013KT 9SM CLR 10/00 A3039 RMK SLP293
00:00
V
10 °C 9 mi - 050° 050° 13 - 19 kt METAR CYTZ 030400Z AUTO 05013G19KT 9SM CLR 10/00 A3039 RMK SLP294

2 października 2022

Czas Kod Pogoda Temp. Widoczność Sufit Wiatr METAR/SPECI
23:00
V
12 °C 9 mi - 040° 040° 14 kt METAR CYTZ 030300Z AUTO 04014KT 9SM CLR 12/M00 A3037 RMK SLP289
22:00
V
12 °C 9 mi - 040° 040° 13 - 19 kt METAR CYTZ 030200Z AUTO 04013G19KT 9SM CLR 12/M00 A3037 RMK SLP286
21:56
V
12 °C 7 mi - 040° 040° 13 kt METAR CYTZ 030156Z AUTO 04013KT 7SM CLR 12/00 A3037 RMK SLP286
21:39
I
13 °C 3 mi - 030° 030° 11 - 17 kt METAR CYTZ 030139Z AUTO 03011G17KT 3SM HZ CLR 13/M00 A3037 RMK SLP286
21:33
I
12 °C 2 mi - 030° 030° 10 - 18 kt METAR CYTZ 030133Z AUTO 03010G18KT 2SM HZ CLR 12/00 A3037 RMK VIS VRB 1 1/4-3 SLP286
21:24
I
12 °C 1¾ mi - 040° 040° 13 kt METAR CYTZ 030124Z AUTO 04013KT 1 3/4SM HZ CLR 12/00 A3037 RMK VIS VRB 3/4-3 SLP286
21:18
V
12 °C 5 mi - 040° 040° 13 kt METAR CYTZ 030118Z AUTO 04013KT 5SM HZ CLR 12/01 A3037 RMK SLP286
21:00
V
11 °C 9 mi - 050° 050° 11 - 16 kt METAR CYTZ 030100Z AUTO 05011G16KT 9SM CLR 11/03 A3036 RMK SLP285
20:00
V
10 °C 9 mi - 070° 070° 4 kt METAR CYTZ 030000Z AUTO 07004KT 9SM CLR 10/05 A3035 RMK SLP282
19:00
V
12 °C 9 mi - 060° 060° 6 kt METAR CYTZ 022300Z AUTO 06006KT 9SM CLR 12/05 A3035 RMK SLP280
18:00
V
13 °C 9 mi - 060° 060° 8 kt METAR CYTZ 022200Z AUTO 06008KT 9SM CLR 13/05 A3033 RMK SLP274
17:00
V
13 °C 9 mi - 050° 050° 11 kt METAR CYTZ 022100Z AUTO 05011KT 9SM CLR 13/04 A3033 RMK SLP273
16:00
V
14 °C 9 mi - 100° 100° 9 kt METAR CYTZ 022000Z AUTO 10009KT 060V120 9SM CLR 14/03 A3032 RMK SLP271
15:00
V
13 °C 9 mi - 060° 060° 10 kt METAR CYTZ 021900Z AUTO 06010KT 050V110 9SM CLR 13/03 A3033 RMK SLP274
14:00
V
12 °C 9 mi - 060° 060° 14 kt METAR CYTZ 021800Z AUTO 06014KT 9SM CLR 12/03 A3035 RMK SLP280
13:00
V
12 °C 9 mi - 070° 070° 15 kt METAR CYTZ 021700Z AUTO 07015KT 9SM CLR 12/01 A3035 RMK SLP282
12:00
V
11 °C 9 mi - 060° 060° 16 kt METAR CYTZ 021600Z AUTO 06016KT 9SM CLR 11/03 A3036 RMK SLP284
11:00
V
11 °C 9 mi - 040° 040° 13 - 20 kt METAR CYTZ 021500Z AUTO 04013G20KT 9SM CLR 11/01 A3036 RMK SLP283
10:00
V
10 °C 9 mi - 040° 040° 15 - 22 kt METAR CYTZ 021400Z AUTO 04015G22KT 9SM CLR 10/01 A3035 RMK SLP281
09:00
V
9 °C 9 mi - 050° 050° 19 - 27 kt METAR CYTZ 021300Z AUTO 05019G27KT 9SM CLR 09/01 A3034 RMK SLP277
Starsze dane

My i osoby trzecie śledzimy twoje zachowanie w internecie na naszej stronie za pomocą plików cookie. Jeśli kontynuujesz, zakładamy, że zgadzasz się z naszą polityką plików cookie. Dowiedz się więcej